Terminal Aerodrome Forecast
Issued by NWS Sterling, VA

Current Version | Previous Version | Graphics & Text | Print | Product List | Glossary On
Versions: 1 2 3 4 5 6 7 8 9 10 11 12 13 14 15 16 17 18 19 20 21 22 23 24 25 26 27 28 29 30
000
FTUS41 KLWX 162337
TAFIAD
TAF
KIAD 162337Z 1700/1806 15004KT P6SM OVC020
     FM170600 VRB03KT 5SM BR OVC020
     FM170800 VRB03KT 3SM BR OVC010
     FM171100 VRB03KT 3SM BR OVC003
     FM171500 17005KT 3/4SM -SHRA BR OVC008
     FM171800 18008KT 1 1/2SM -SHRA BR OVC008
     FM172100 19009KT 5SM BR BKN008
     FM180500 23007KT P6SM BKN035=

USA.gov is the U.S. government's official web portal to all federal, state and local government web resources and services.